createdAt,value
2019-01-16T00:00:30.145Z,111.97
2019-01-16T00:03:03.056Z,85.80
2019-01-16T00:05:39.069Z,86.67
2019-01-16T00:08:27.533Z,88.63
2019-01-16T00:11:00.257Z,83.00
2019-01-16T00:13:48.222Z,93.13
2019-01-16T00:16:21.185Z,92.90
2019-01-16T00:18:57.397Z,92.13
2019-01-16T00:21:36.684Z,93.53
2019-01-16T00:24:23.492Z,70.47
2019-01-16T00:27:01.241Z,90.93
2019-01-16T00:29:34.302Z,89.83
2019-01-16T00:32:04.604Z,83.37
2019-01-16T00:34:40.915Z,99.83
2019-01-16T00:37:20.246Z,138.00
2019-01-16T00:39:57.269Z,120.50
2019-01-16T00:42:45.633Z,134.03
2019-01-16T00:45:15.898Z,124.87
2019-01-16T00:47:46.268Z,124.17
2019-01-16T00:50:25.373Z,120.40
2019-01-16T00:52:56.151Z,140.27
2019-01-16T00:55:42.676Z,135.27
2019-01-16T00:58:12.962Z,135.10
2019-01-16T01:00:46.288Z,135.13
2019-01-16T01:03:16.564Z,126.17
2019-01-16T01:06:00.060Z,141.53
2019-01-16T01:08:30.432Z,134.77
2019-01-16T01:11:15.856Z,122.93
2019-01-16T01:14:04.108Z,127.13
2019-01-16T01:16:52.868Z,130.50
2019-01-16T01:19:23.127Z,126.23
2019-01-16T01:21:57.931Z,130.67
2019-01-16T01:24:44.000Z,121.30
2019-01-16T01:27:29.068Z,116.63
2019-01-16T01:30:15.148Z,103.97
2019-01-16T01:32:50.989Z,102.67
2019-01-16T01:35:21.270Z,103.97
2019-01-16T01:37:57.247Z,111.07
2019-01-16T01:40:39.287Z,108.20
2019-01-16T01:43:25.587Z,93.73
2019-01-16T01:45:58.592Z,105.17
2019-01-16T01:48:45.179Z,102.07
2019-01-16T01:51:24.360Z,99.17
2019-01-16T01:53:54.600Z,97.00
2019-01-16T01:56:24.892Z,88.57
2019-01-16T01:58:57.827Z,88.93
2019-01-16T02:01:28.071Z,81.73
2019-01-16T02:04:16.210Z,76.57
2019-01-16T02:06:52.418Z,77.60
2019-01-16T02:09:25.602Z,73.63
2019-01-16T02:12:11.906Z,71.43
2019-01-16T02:14:42.151Z,59.77
2019-01-16T02:17:14.840Z,54.93
2019-01-16T02:19:51.008Z,50.83
2019-01-16T02:22:23.988Z,57.43
2019-01-16T02:24:56.980Z,43.83
2019-01-16T02:27:43.337Z,48.67
2019-01-16T02:30:24.302Z,53.90
2019-01-16T02:32:54.541Z,48.13
2019-01-16T02:35:39.736Z,47.27
2019-01-16T02:38:27.981Z,57.20
2019-01-16T02:41:04.461Z,52.50
2019-01-16T02:43:34.813Z,50.63
2019-01-16T02:46:21.385Z,52.80
2019-01-16T02:49:00.409Z,59.17
2019-01-16T02:51:33.436Z,53.03
2019-01-16T02:54:17.171Z,59.87
2019-01-16T02:56:47.476Z,69.87
2019-01-16T02:59:17.729Z,58.10
2019-01-16T03:01:47.966Z,54.80
2019-01-16T03:04:24.164Z,61.20
2019-01-16T03:07:03.204Z,62.83
2019-01-16T03:09:50.207Z,66.53
2019-01-16T03:12:23.472Z,66.90
2019-01-16T03:14:59.736Z,60.27
2019-01-16T03:17:45.944Z,59.07
2019-01-16T03:20:32.138Z,54.97
2019-01-16T03:23:20.334Z,51.77
2019-01-16T03:25:50.592Z,50.33
2019-01-16T03:28:36.687Z,49.93
2019-01-16T03:31:22.866Z,54.20
2019-01-16T03:33:53.185Z,48.87
2019-01-16T03:36:29.064Z,57.77
2019-01-16T03:38:59.354Z,64.07
2019-01-16T03:41:47.547Z,68.07
2019-01-16T03:44:20.705Z,54.43
2019-01-16T03:46:56.917Z,62.23
2019-01-16T03:49:35.772Z,55.37
2019-01-16T03:52:22.138Z,56.97
2019-01-16T03:54:52.421Z,60.23
2019-01-16T03:57:22.702Z,64.23
2019-01-16T03:59:56.025Z,68.17
2019-01-16T04:02:26.264Z,60.60
2019-01-16T04:04:59.218Z,59.17
2019-01-16T04:07:29.465Z,63.13
2019-01-16T04:10:17.883Z,80.00
2019-01-16T04:12:48.289Z,79.23
2019-01-16T04:15:27.510Z,73.00
2019-01-16T04:18:03.757Z,69.07
2019-01-16T04:20:36.966Z,69.93
2019-01-16T04:23:17.512Z,77.40
2019-01-16T04:25:56.565Z,80.43
2019-01-16T04:28:26.822Z,72.00
2019-01-16T04:31:07.316Z,72.73
2019-01-16T04:33:37.630Z,68.40
2019-01-16T04:36:24.366Z,51.43
2019-01-16T04:39:03.773Z,57.70
2019-01-16T04:41:34.104Z,51.67
2019-01-16T04:44:04.370Z,53.43
2019-01-16T04:46:34.613Z,44.33
2019-01-16T04:49:05.925Z,50.20
2019-01-16T04:51:49.745Z,59.03
2019-01-16T04:54:22.779Z,62.13
2019-01-16T04:56:59.077Z,55.83
2019-01-16T04:59:45.353Z,69.73
2019-01-16T05:02:18.375Z,74.97
2019-01-16T05:04:51.580Z,74.60
2019-01-16T05:07:31.034Z,77.75
2019-01-16T05:10:18.371Z,65.57
2019-01-16T05:13:06.432Z,59.93
2019-01-16T05:15:37.154Z,59.50
2019-01-16T05:18:22.238Z,64.67
2019-01-16T05:20:54.075Z,52.90
2019-01-16T05:23:40.695Z,63.20
2019-01-16T05:26:12.755Z,49.70
2019-01-16T05:28:43.279Z,54.50
2019-01-16T05:31:19.403Z,49.40
2019-01-16T05:33:49.630Z,43.77
2019-01-16T05:36:19.886Z,51.87
2019-01-16T05:38:51.732Z,51.90
2019-01-16T05:41:28.129Z,49.70
2019-01-16T05:44:12.091Z,58.73
2019-01-16T05:46:57.401Z,59.97
2019-01-16T05:49:30.626Z,55.70
2019-01-16T05:52:09.672Z,45.93
2019-01-16T05:54:45.791Z,44.23
2019-01-16T05:57:34.238Z,42.73
2019-01-16T06:00:20.251Z,45.10
2019-01-16T06:02:56.347Z,52.27
2019-01-16T06:05:42.573Z,43.73
2019-01-16T06:08:21.740Z,46.97
2019-01-16T06:10:54.826Z,39.80
2019-01-16T06:13:25.059Z,44.33
2019-01-16T06:15:55.295Z,37.40
2019-01-16T06:18:25.604Z,43.73
2019-01-16T06:21:01.565Z,46.90
2019-01-16T06:23:37.852Z,40.73
2019-01-16T06:26:08.116Z,48.13
2019-01-16T06:28:50.326Z,41.47
2019-01-16T06:31:26.226Z,42.27
2019-01-16T06:33:59.425Z,40.97
2019-01-16T06:36:32.408Z,33.63
2019-01-16T06:39:05.603Z,44.27
2019-01-16T06:41:41.752Z,38.47
2019-01-16T06:44:17.610Z,35.60
2019-01-16T06:46:59.935Z,38.33
2019-01-16T06:49:30.304Z,37.90
2019-01-16T06:52:03.553Z,38.30
2019-01-16T06:54:39.574Z,26.27
2019-01-16T06:57:18.618Z,40.70
2019-01-16T06:59:54.708Z,35.23
2019-01-16T07:02:34.076Z,34.70
2019-01-16T07:05:04.258Z,43.37
2019-01-16T07:07:37.165Z,36.20
2019-01-16T07:10:25.761Z,31.27
2019-01-16T07:13:12.490Z,30.77
2019-01-16T07:15:45.512Z,34.93
2019-01-16T07:18:24.306Z,31.40
2019-01-16T07:21:03.126Z,35.43
2019-01-16T07:23:36.254Z,45.23
2019-01-16T07:26:24.771Z,40.63
2019-01-16T07:28:57.706Z,35.17
2019-01-16T07:31:43.718Z,33.93
2019-01-16T07:34:13.995Z,34.33
2019-01-16T07:36:44.184Z,42.33
2019-01-16T07:39:14.398Z,37.30
2019-01-16T07:41:47.413Z,34.07
2019-01-16T07:44:20.369Z,34.27
2019-01-16T07:46:50.578Z,37.37
2019-01-16T07:49:36.831Z,34.23
2019-01-16T07:52:09.764Z,39.43
2019-01-16T07:54:45.802Z,45.87
2019-01-16T07:57:16.081Z,42.13
2019-01-16T07:59:46.381Z,38.93
2019-01-16T08:02:16.682Z,39.73
2019-01-16T08:04:58.758Z,31.80
2019-01-16T08:07:45.208Z,36.60
2019-01-16T08:10:18.166Z,43.77
2019-01-16T08:12:51.156Z,37.53
2019-01-16T08:15:24.422Z,44.67
2019-01-16T08:17:54.742Z,34.00
2019-01-16T08:20:25.265Z,29.47
2019-01-16T08:23:12.133Z,36.23
2019-01-16T08:25:54.541Z,32.67
2019-01-16T08:28:24.797Z,37.70
2019-01-16T08:31:00.917Z,34.07
2019-01-16T08:33:47.155Z,35.20
2019-01-16T08:36:17.370Z,46.53
2019-01-16T08:38:53.398Z,46.50
2019-01-16T08:41:26.694Z,41.92
2019-01-16T08:44:02.802Z,33.43
2019-01-16T08:46:51.016Z,33.53
2019-01-16T08:49:30.204Z,38.47
2019-01-16T08:52:03.088Z,36.47
2019-01-16T08:54:33.240Z,33.67
2019-01-16T08:57:03.551Z,33.17
2019-01-16T08:59:36.561Z,30.10
2019-01-16T09:02:12.510Z,31.47
2019-01-16T09:04:42.842Z,26.10
2019-01-16T09:07:31.121Z,34.73
2019-01-16T09:10:01.381Z,33.37
2019-01-16T09:12:38.638Z,30.57
2019-01-16T09:15:34.567Z,28.80
2019-01-16T09:18:07.886Z,27.77
2019-01-16T09:20:40.151Z,36.67
2019-01-16T09:23:27.700Z,36.23
2019-01-16T09:26:03.921Z,31.00
2019-01-16T09:28:36.960Z,33.97
2019-01-16T09:31:07.183Z,28.93
2019-01-16T09:33:55.266Z,30.67
2019-01-16T09:36:25.492Z,31.47
2019-01-16T09:39:01.600Z,36.47
2019-01-16T09:41:37.974Z,31.50
2019-01-16T09:44:24.727Z,30.47
2019-01-16T09:47:00.366Z,27.40
2019-01-16T09:49:30.566Z,30.80
2019-01-16T09:52:00.882Z,26.83
2019-01-16T09:54:43.036Z,33.28
2019-01-16T09:57:28.221Z,28.27
2019-01-16T10:00:14.620Z,31.37
2019-01-16T10:03:00.576Z,33.60
2019-01-16T10:05:39.386Z,32.10
2019-01-16T10:08:18.190Z,34.50
2019-01-16T10:10:51.455Z,35.97
2019-01-16T10:13:21.772Z,33.10
2019-01-16T10:15:57.843Z,33.47
2019-01-16T10:18:46.180Z,32.60
2019-01-16T10:21:16.432Z,31.37
2019-01-16T10:23:53.918Z,34.73
2019-01-16T10:26:27.150Z,31.57
2019-01-16T10:29:13.402Z,29.90
2019-01-16T10:31:52.519Z,30.00
2019-01-16T10:34:39.153Z,31.23
2019-01-16T10:37:12.382Z,30.07
2019-01-16T10:39:58.347Z,29.98
2019-01-16T10:42:31.412Z,28.60
2019-01-16T10:45:04.364Z,27.60
2019-01-16T10:47:37.599Z,25.90
2019-01-16T10:50:10.759Z,24.90
2019-01-16T10:52:50.006Z,28.97
2019-01-16T10:55:34.766Z,30.60
2019-01-16T10:58:21.218Z,28.73
2019-01-16T11:00:54.255Z,30.13
2019-01-16T11:03:33.295Z,31.03
2019-01-16T11:06:03.573Z,27.53
2019-01-16T11:08:37.641Z,28.30
2019-01-16T11:11:19.394Z,25.90
2019-01-16T11:13:50.715Z,25.50
2019-01-16T11:16:20.994Z,31.03
2019-01-16T11:18:54.430Z,25.03
2019-01-16T11:21:27.659Z,28.40
2019-01-16T11:24:03.489Z,25.73
2019-01-16T11:26:49.729Z,29.47
2019-01-16T11:29:36.129Z,24.93
2019-01-16T11:32:21.207Z,26.63
2019-01-16T11:35:00.197Z,30.60
2019-01-16T11:37:30.439Z,27.53
2019-01-16T11:40:06.859Z,30.27
2019-01-16T11:42:39.873Z,28.77
2019-01-16T11:45:22.519Z,30.73
2019-01-16T11:48:10.746Z,32.10
2019-01-16T11:50:41.026Z,30.93
2019-01-16T11:53:27.330Z,26.30
2019-01-16T11:56:06.387Z,30.33
2019-01-16T11:58:45.411Z,29.07
2019-01-16T12:01:27.499Z,35.70
2019-01-16T12:04:12.676Z,35.07
2019-01-16T12:06:45.634Z,35.30
2019-01-16T12:09:30.828Z,35.37
2019-01-16T12:12:01.110Z,37.70
2019-01-16T12:14:37.440Z,27.10
2019-01-16T12:17:23.805Z,28.27
2019-01-16T12:19:56.726Z,24.13
2019-01-16T12:22:38.858Z,26.93
2019-01-16T12:25:11.818Z,24.63
2019-01-16T12:27:46.170Z,27.63
2019-01-16T12:30:19.638Z,31.30
2019-01-16T12:32:56.504Z,29.37
2019-01-16T12:35:38.625Z,34.23
2019-01-16T12:38:14.650Z,34.40
2019-01-16T12:40:50.914Z,37.60
2019-01-16T12:43:21.222Z,37.40
2019-01-16T12:45:57.009Z,41.33
2019-01-16T12:48:27.286Z,36.77
2019-01-16T12:51:00.502Z,39.07
2019-01-16T12:53:31.082Z,45.87
2019-01-16T12:56:05.334Z,49.73
2019-01-16T12:58:55.174Z,46.97
2019-01-16T13:01:46.356Z,50.23
2019-01-16T13:04:25.395Z,43.37
2019-01-16T13:06:55.613Z,58.73
2019-01-16T13:09:37.772Z,46.50
2019-01-16T13:12:25.358Z,49.10
2019-01-16T13:14:58.131Z,42.97
2019-01-16T13:17:44.443Z,45.97
2019-01-16T13:20:18.988Z,45.50
2019-01-16T13:22:50.186Z,45.63
2019-01-16T13:25:28.905Z,41.77
2019-01-16T13:28:13.401Z,42.87
2019-01-16T13:30:52.431Z,37.57
2019-01-16T13:33:26.449Z,43.03
2019-01-16T13:35:56.628Z,46.13
2019-01-16T13:38:29.610Z,45.50
2019-01-16T13:41:16.799Z,41.93
2019-01-16T13:43:49.739Z,36.57
2019-01-16T13:46:20.020Z,38.20
2019-01-16T13:49:06.239Z,46.83
2019-01-16T13:51:36.484Z,41.40
2019-01-16T13:54:15.660Z,58.38
2019-01-16T13:56:54.714Z,47.23
2019-01-16T13:59:33.920Z,44.67
2019-01-16T14:02:04.229Z,40.17
2019-01-16T14:04:50.657Z,40.20
2019-01-16T14:07:24.090Z,34.93
2019-01-16T14:10:01.748Z,38.50
2019-01-16T14:12:40.936Z,36.13
2019-01-16T14:15:27.908Z,67.43
2019-01-16T14:17:58.162Z,58.93
2019-01-16T14:20:31.332Z,59.77
2019-01-16T14:23:04.614Z,86.80
2019-01-16T14:25:37.570Z,123.47
2019-01-16T14:28:16.435Z,154.30
2019-01-16T14:30:53.814Z,113.27
2019-01-16T14:33:29.879Z,104.63
2019-01-16T14:36:02.308Z,121.07
2019-01-16T14:38:48.567Z,112.13
2019-01-16T14:41:27.796Z,100.33
2019-01-16T14:44:12.567Z,81.60
2019-01-16T14:47:02.126Z,72.30
2019-01-16T14:49:47.559Z,81.77
2019-01-16T14:52:23.782Z,106.47
2019-01-16T14:55:10.174Z,120.57
2019-01-16T14:57:49.203Z,136.10
2019-01-16T15:00:19.482Z,102.67
2019-01-16T15:03:05.431Z,91.40
2019-01-16T15:05:47.764Z,91.47
2019-01-16T15:08:18.059Z,83.23
2019-01-16T15:10:48.372Z,80.77
2019-01-16T15:13:36.780Z,82.57
2019-01-16T15:16:07.000Z,90.87
2019-01-16T15:19:08.046Z,97.13
2019-01-16T15:21:56.812Z,107.93
2019-01-16T15:24:36.068Z,102.50
2019-01-16T15:27:08.043Z,89.57
2019-01-16T15:29:53.392Z,105.57
2019-01-16T15:32:23.695Z,105.27
2019-01-16T15:34:54.006Z,91.67
2019-01-16T15:37:30.296Z,93.77
2019-01-16T15:40:00.548Z,101.33
2019-01-16T15:42:39.887Z,88.23
2019-01-16T16:00:16.404Z,82.50
2019-01-16T16:02:47.802Z,134.57
2019-01-16T16:05:29.836Z,209.70
2019-01-16T16:08:00.135Z,121.13
2019-01-16T16:10:46.293Z,87.50
2019-01-16T16:13:46.076Z,104.40
2019-01-16T16:19:38.083Z,126.50
2019-01-16T16:22:11.665Z,102.53
2019-01-16T16:24:53.258Z,89.87
2019-01-16T16:27:26.003Z,90.33
2019-01-16T16:29:56.383Z,79.03
2019-01-16T16:32:31.911Z,72.97
2019-01-16T16:35:02.045Z,70.87
2019-01-16T16:37:41.319Z,71.67
2019-01-16T16:40:14.865Z,65.07
2019-01-16T16:42:45.077Z,65.77
2019-01-16T16:45:24.140Z,65.83
2019-01-16T16:47:57.426Z,77.20
2019-01-16T16:50:36.647Z,70.00
2019-01-16T16:53:08.454Z,58.10
2019-01-16T16:55:39.120Z,61.80
2019-01-16T16:58:13.679Z,62.23
2019-01-16T17:00:46.811Z,78.50
2019-01-16T17:03:20.082Z,68.53
2019-01-16T17:05:56.298Z,95.30
2019-01-16T17:08:42.860Z,138.90
2019-01-16T17:11:22.234Z,81.70
2019-01-16T17:13:52.589Z,94.40
2019-01-16T17:16:37.985Z,118.53
2019-01-16T17:19:08.242Z,125.60
2019-01-16T17:21:41.579Z,115.87
2019-01-16T17:24:12.016Z,112.10
2019-01-16T17:26:58.598Z,129.13
2019-01-16T17:29:28.875Z,139.83
2019-01-16T17:31:59.365Z,122.83
2019-01-16T17:34:40.134Z,145.87
2019-01-16T17:37:13.390Z,149.57
2019-01-16T17:40:09.202Z,170.50
2019-01-16T17:42:48.544Z,194.27
2019-01-16T17:45:21.291Z,166.10
2019-01-16T17:48:03.340Z,163.57
2019-01-16T17:50:42.369Z,175.40
2019-01-16T17:53:31.402Z,175.77
2019-01-16T17:56:01.738Z,181.27
2019-01-16T17:58:57.547Z,173.63
2019-01-16T18:01:33.819Z,91.80
2019-01-16T18:04:23.723Z,115.60
2019-01-16T18:07:08.550Z,102.70
2019-01-16T18:09:46.148Z,142.13
2019-01-16T18:12:16.581Z,156.37
2019-01-16T18:14:52.489Z,164.17
2019-01-16T18:17:30.350Z,151.13
2019-01-16T18:20:17.235Z,185.43
2019-01-16T18:29:49.133Z,263.30
2019-01-16T18:35:13.565Z,289.27
2019-01-16T18:40:45.057Z,251.93
2019-01-16T18:43:46.352Z,234.50
2019-01-16T18:46:28.063Z,225.27
2019-01-16T18:51:57.797Z,219.90
2019-01-16T18:54:52.488Z,209.40
2019-01-16T18:57:28.318Z,191.60
2019-01-16T19:03:21.406Z,186.60
2019-01-16T19:08:56.710Z,188.23
2019-01-16T19:11:30.011Z,265.60
2019-01-16T19:14:00.436Z,197.57
2019-01-16T19:16:42.623Z,195.43
2019-01-16T19:19:29.059Z,191.83
2019-01-16T19:22:08.054Z,193.97
2019-01-16T19:24:42.535Z,181.53
2019-01-16T19:27:18.821Z,198.77
2019-01-16T19:29:49.099Z,209.50
2019-01-16T19:32:21.885Z,171.90
2019-01-16T19:34:57.802Z,135.70
2019-01-16T19:37:39.686Z,154.50
2019-01-16T19:40:18.491Z,190.47
2019-01-16T19:42:51.566Z,128.50
2019-01-16T19:45:45.082Z,162.27
2019-01-16T19:51:56.610Z,135.10
2019-01-16T19:58:01.865Z,108.87
2019-01-16T20:00:48.719Z,97.77
2019-01-16T20:06:26.253Z,118.43
2019-01-16T20:09:29.513Z,123.87
2019-01-16T20:12:04.569Z,128.00
2019-01-16T20:14:57.313Z,154.83
2019-01-16T20:17:42.535Z,111.27
2019-01-16T20:20:56.271Z,124.43
2019-01-16T20:23:40.039Z,118.63
2019-01-16T20:30:44.620Z,146.87
2019-01-16T20:32:52.252Z,172.93
2019-01-16T20:35:26.881Z,203.10
2019-01-16T20:37:57.110Z,174.10
2019-01-16T20:40:39.477Z,176.73
2019-01-16T20:43:27.579Z,152.07
2019-01-16T20:46:34.508Z,160.87
2019-01-16T20:49:06.423Z,171.13
2019-01-16T20:51:54.564Z,172.93
2019-01-16T20:54:33.889Z,183.67
2019-01-16T21:00:15.774Z,186.23
2019-01-16T21:00:42.535Z,176.17
2019-01-16T21:02:58.053Z,186.77
2019-01-16T21:05:34.210Z,202.00
2019-01-16T21:11:24.612Z,196.80
2019-01-16T21:13:57.817Z,206.33
2019-01-16T21:16:45.944Z,207.03
2019-01-16T21:19:28.492Z,198.67
2019-01-16T21:29:10.876Z,187.60
2019-01-16T21:32:00.751Z,177.83
2019-01-16T21:34:47.349Z,187.77
2019-01-16T21:37:17.678Z,182.27
2019-01-16T21:39:53.922Z,197.03
2019-01-16T21:42:24.250Z,199.33
2019-01-16T21:44:54.523Z,227.47
2019-01-16T21:47:38.402Z,211.47
2019-01-16T21:50:11.271Z,199.07
2019-01-16T21:52:55.795Z,198.60
2019-01-16T21:55:31.519Z,202.80
2019-01-16T21:58:07.560Z,216.30
2019-01-16T22:00:37.913Z,205.07
2019-01-16T22:03:26.135Z,236.23
2019-01-16T22:06:05.034Z,244.10
2019-01-16T22:08:44.392Z,229.27
2019-01-16T22:11:26.593Z,240.13
2019-01-16T22:14:06.887Z,255.33
2019-01-16T22:16:37.143Z,259.13
2019-01-16T22:19:07.408Z,245.03
2019-01-16T22:21:40.513Z,208.03
2019-01-16T22:24:13.451Z,209.77
2019-01-16T22:26:43.705Z,212.70
2019-01-16T22:29:14.068Z,181.30
2019-01-16T22:31:50.137Z,204.47
2019-01-16T22:34:32.346Z,212.63
2019-01-16T22:37:02.596Z,235.55
2019-01-16T22:39:48.808Z,226.37
2019-01-16T22:42:34.768Z,216.10
2019-01-16T22:45:05.906Z,197.00
2019-01-16T22:47:48.334Z,201.67
2019-01-16T22:50:21.606Z,225.17
2019-01-16T22:52:51.838Z,166.20
2019-01-16T22:55:40.028Z,174.57
2019-01-16T22:58:11.411Z,184.03
2019-01-16T23:00:58.202Z,199.97
2019-01-16T23:03:31.542Z,153.63
2019-01-16T23:06:01.794Z,126.60
2019-01-16T23:08:32.042Z,122.53
2019-01-16T23:11:02.273Z,177.57
2019-01-16T23:13:32.598Z,220.00
2019-01-16T23:16:11.744Z,97.83
2019-01-16T23:18:42.012Z,92.13
2019-01-16T23:21:12.328Z,113.43
2019-01-16T23:23:42.669Z,76.80
2019-01-16T23:26:12.922Z,82.73
2019-01-16T23:28:45.896Z,57.90
2019-01-16T23:31:31.095Z,56.73
2019-01-16T23:34:03.849Z,55.80
2019-01-16T23:36:49.396Z,64.75
2019-01-16T23:39:22.711Z,56.90
2019-01-16T23:42:05.056Z,51.83
2019-01-16T23:44:40.849Z,54.13
2019-01-16T23:47:28.991Z,54.77
2019-01-16T23:50:08.190Z,55.87
2019-01-16T23:52:45.734Z,50.97
2019-01-16T23:55:27.865Z,55.87
2019-01-16T23:57:58.196Z,56.37
